Latest Weather Observations for Ocean Reef

IDW60901

Issued at 5:31 am WST Tuesday 7 December 2021 (issued every 10 minutes, with the page automatically refreshed every 10 minutes)

About weather observations | Map of Perth area stations | Latest observations for Perth area | Other Formats
Station Details ID: 009214 Name: OCEAN REEF Lat: -31.76 Lon: 115.73 Height: 10.0 m
Data from the previous 72 hours. | See also: Recent months at Ocean Reef
Date/Time
WST
Temp
°C
App
Temp
°C
Dew
Point
°C
Rel
Hum
%
Delta-T
°C
Wind Press
QNH
hPa
Press
MSL
hPa
Rain since
9am
mm
Dir  Spd
km/h
Gust
km/h
Spd
kts
Gust
kts
07/05:30am - - - - - ESE 28 43 15 23 - - -
07/05:00am - - - - - ESE 19 33 10 18 - - -
07/04:30am - - - - - ESE 20 39 11 21 - - -
07/04:00am - - - - - ESE 24 39 13 21 - - -
07/03:30am - - - - - ESE 26 39 14 21 - - -
07/03:01am - - - - - ESE 28 46 15 25 - - -
07/03:00am - - - - - ESE 26 41 14 22 - - -
07/02:30am - - - - - ESE 28 43 15 23 - - -
07/02:00am - - - - - ESE 26 41 14 22 - - -
07/01:35am - - - - - ESE 30 48 16 26 - - -
07/01:30am - - - - - ESE 32 48 17 26 - - -
07/01:00am - - - - - ESE 33 59 18 32 - - -
07/12:53am - - - - - ESE 28 48 15 26 - - -
07/12:30am - - - - - ESE 33 48 18 26 - - -
07/12:07am - - - - - ESE 35 54 19 29 - - -
07/12:00am - - - - - ESE 35 52 19 28 - - -
 
Date/Time
WST
Temp
°C
App
Temp
°C
Dew
Point
°C
Rel
Hum
%
Delta-T
°C
Wind Press
QNH
hPa
Press
MSL
hPa
Rain since
9am
mm
Dir  Spd
km/h
Gust
km/h
Spd
kts
Gust
kts
06/11:30pm - - - - - ESE 39 59 21 32 - - -
06/11:01pm - - - - - ESE 32 50 17 27 - - -
06/11:00pm - - - - - ESE 32 46 17 25 - - -
06/10:30pm - - - - - ESE 30 48 16 26 - - -
06/10:00pm - - - - - ESE 33 56 18 30 - - -
06/09:30pm - - - - - ESE 30 41 16 22 - - -
06/09:00pm - - - - - ESE 30 48 16 26 - - -
06/08:30pm - - - - - ESE 33 52 18 28 - - -
06/08:17pm - - - - - ESE 28 48 15 26 - - -
06/08:00pm - - - - - ESE 22 35 12 19 - - -
06/07:39pm - - - - - SE 30 48 16 26 - - -
06/07:30pm - - - - - SE 30 41 16 22 - - -
06/07:00pm - - - - - ESE 20 37 11 20 - - -
06/06:30pm - - - - - SE 17 30 9 16 - - -
06/06:00pm - - - - - S 19 24 10 13 - - -
06/05:30pm - - - - - S 24 32 13 17 - - -
06/05:00pm - - - - - S 28 33 15 18 - - -
06/04:30pm - - - - - S 28 33 15 18 - - -
06/04:00pm - - - - - S 28 35 15 19 - - -
06/03:30pm - - - - - S 26 35 14 19 - - -
06/03:00pm - - - - - S 30 39 16 21 - - -
06/02:30pm - - - - - S 32 39 17 21 - - -
06/02:00pm - - - - - S 30 35 16 19 - - -
06/01:30pm - - - - - SSW 32 37 17 20 - - -
06/01:00pm - - - - - S 22 33 12 18 - - -
06/12:30pm - - - - - SE 22 35 12 19 - - -
06/12:00pm - - - - - SE 24 33 13 18 - - -
06/11:30am - - - - - SE 24 37 13 20 - - -
06/11:00am - - - - - SE 20 35 11 19 - - -
06/10:30am - - - - - SE 26 35 14 19 - - -
06/10:00am - - - - - ESE 26 37 14 20 - - -
06/09:30am - - - - - ESE 22 30 12 16 - - -
06/09:00am - - - - - ESE 22 35 12 19 - - -
06/08:30am - - - - - ESE 22 35 12 19 - - -
06/08:00am - - - - - ESE 22 39 12 21 - - -
06/07:30am - - - - - ESE 24 37 13 20 - - -
06/07:00am - - - - - ESE 22 32 12 17 - - -
06/06:30am - - - - - ESE 22 33 12 18 - - -
06/06:00am - - - - - SE 24 35 13 19 - - -
06/05:30am - - - - - SE 22 35 12 19 - - -
06/05:00am - - - - - SE 24 37 13 20 - - -
06/04:30am - - - - - SE 28 37 15 20 - - -
06/04:00am - - - - - SE 24 33 13 18 - - -
06/03:30am - - - - - ESE 22 35 12 19 - - -
06/03:00am - - - - - ESE 20 30 11 16 - - -
06/02:30am - - - - - ESE 13 19 7 10 - - -
06/02:00am - - - - - SE 22 32 12 17 - - -
06/01:30am - - - - - SE 22 35 12 19 - - -
06/01:00am - - - - - SE 20 28 11 15 - - -
06/12:30am - - - - - SE 13 17 7 9 - - -
06/12:00am - - - - - SE 13 19 7 10 - - -
 
Date/Time
WST
Temp
°C
App
Temp
°C
Dew
Point
°C
Rel
Hum
%
Delta-T
°C
Wind Press
QNH
hPa
Press
MSL
hPa
Rain since
9am
mm
Dir  Spd
km/h
Gust
km/h
Spd
kts
Gust
kts
05/11:30pm - - - - - SSE 13 15 7 8 - - -
05/11:00pm - - - - - SSE 13 17 7 9 - - -
05/10:30pm - - - - - SSE 19 24 10 13 - - -
05/10:00pm - - - - - SSE 22 30 12 16 - - -
05/09:30pm - - - - - S 32 39 17 21 - - -
05/09:00pm - - - - - S 33 41 18 22 - - -
05/08:30pm - - - - - S 35 44 19 24 - - -
05/08:00pm - - - - - S 37 46 20 25 - - -
05/07:30pm - - - - - S 39 48 21 26 - - -
05/07:00pm - - - - - S 39 48 21 26 - - -
05/06:30pm - - - - - S 37 48 20 26 - - -
05/06:00pm - - - - - S 35 44 19 24 - - -
05/05:30pm - - - - - S 35 44 19 24 - - -
05/05:00pm - - - - - S 33 43 18 23 - - -
05/04:30pm - - - - - S 33 44 18 24 - - -
05/04:00pm - - - - - S 33 44 18 24 - - -
05/03:30pm - - - - - S 32 39 17 21 - - -
05/03:00pm - - - - - S 37 48 20 26 - - -
05/02:30pm - - - - - S 35 44 19 24 - - -
05/02:00pm - - - - - S 33 44 18 24 - - -
05/01:30pm - - - - - S 37 44 20 24 - - -
05/01:00pm - - - - - SSW 30 37 16 20 - - -
05/12:30pm - - - - - S 33 39 18 21 - - -
05/12:00pm - - - - - S 32 39 17 21 - - -
05/11:30am - - - - - S 30 37 16 20 - - -
05/11:00am - - - - - S 28 35 15 19 - - -
05/10:30am - - - - - S 28 33 15 18 - - -
05/10:00am - - - - - SSW 32 37 17 20 - - -
05/09:36am - - - - - SSW 22 37 12 20 - - -
05/09:30am - - - - - SSW 11 19 6 10 - - -
05/09:00am - - - - - ESE 13 20 7 11 - - -
05/08:30am - - - - - ESE 11 15 6 8 - - -
05/08:00am - - - - - ESE 9 15 5 8 - - -
05/07:30am - - - - - SE 13 19 7 10 - - -
05/07:00am - - - - - SE 15 20 8 11 - - -
05/06:30am - - - - - ESE 13 19 7 10 - - -
05/06:00am - - - - - SSE 9 11 5 6 - - -
05/05:30am - - - - - SE 9 13 5 7 - - -
05/05:00am - - - - - SSE 9 13 5 7 - - -
05/04:30am - - - - - E 20 28 11 15 - - -
05/04:00am - - - - - E 22 33 12 18 - - -
05/03:30am - - - - - E 24 35 13 19 - - -
05/03:00am - - - - - E 32 44 17 24 - - -
05/02:30am - - - - - ESE 30 41 16 22 - - -
05/02:00am - - - - - ESE 24 33 13 18 - - -
05/01:30am - - - - - ESE 19 24 10 13 - - -
05/01:00am - - - - - ESE 20 28 11 15 - - -
05/12:30am - - - - - ESE 15 20 8 11 - - -
05/12:00am - - - - - SE 11 13 6 7 - - -
 
Date/Time
WST
Temp
°C
App
Temp
°C
Dew
Point
°C
Rel
Hum
%
Delta-T
°C
Wind Press
QNH
hPa
Press
MSL
hPa
Rain since
9am
mm
Dir  Spd
km/h
Gust
km/h
Spd
kts
Gust
kts
04/11:30pm - - - - - SE 15 17 8 9 - - -
04/11:00pm - - - - - SSE 13 15 7 8 - - -
04/10:30pm - - - - - S 17 19 9 10 - - -
04/10:00pm - - - - - S 20 28 11 15 - - -
04/09:30pm - - - - - S 24 30 13 16 - - -
04/09:00pm - - - - - S 28 35 15 19 - - -
04/08:30pm - - - - - S 28 35 15 19 - - -
04/08:00pm - - - - - S 32 39 17 21 - - -
04/07:30pm - - - - - S 30 37 16 20 - - -
04/07:00pm - - - - - S 30 35 16 19 - - -
04/06:30pm - - - - - S 30 39 16 21 - - -
04/06:00pm - - - - - S 33 39 18 21 - - -
04/05:30pm - - - - - S 33 41 18 22 - - -
04/05:00pm - - - - - S 30 37 16 20 - - -
04/04:30pm - - - - - S 32 39 17 21 - - -
04/04:00pm - - - - - S 30 37 16 20 - - -
04/03:30pm - - - - - S 33 44 18 24 - - -
04/03:00pm - - - - - S 32 44 17 24 - - -
04/02:30pm - - - - - S 35 43 19 23 - - -
04/02:00pm - - - - - S 32 39 17 21 - - -
04/01:30pm - - - - - S 26 33 14 18 - - -
04/01:00pm - - - - - S 28 35 15 19 - - -
04/12:30pm - - - - - S 24 32 13 17 - - -
04/12:00pm - - - - - S 26 32 14 17 - - -
04/11:30am - - - - - SSW 22 28 12 15 - - -
04/11:00am - - - - - ESE 15 26 8 14 - - -
04/10:30am - - - - - SE 17 26 9 14 - - -
04/10:00am - - - - - E 17 28 9 15 - - -
04/09:30am - - - - - E 20 30 11 16 - - -
04/09:00am - - - - - E 15 22 8 12 - - -
04/08:30am - - - - - E 19 28 10 15 - - -
04/08:00am - - - - - E 20 28 11 15 - - -
04/07:30am - - - - - E 17 30 9 16 - - -
04/07:00am - - - - - E 20 33 11 18 - - -
04/06:30am - - - - - E 19 28 10 15 - - -
04/06:00am - - - - - ESE 19 28 10 15 - - -

Latest Capital City Observations: Canberra | Sydney | Melbourne | Brisbane | Adelaide | Perth | Hobart | Darwin

Other formats

Comma delimited format used in spreadsheet applications
http://www.bom.gov.au/fwo/IDW60901/IDW60901.94607.axf

JavaScript Object Notation format (JSON) in row-major order
http://www.bom.gov.au/fwo/IDW60901/IDW60901.94607.json

Data quality

Most of these data are generated automatically and are frequently updated. Quality checks on data are not normally performed. It is possible for incorrect values to appear. Refer to information at About Latest Weather Observations and please check the disclaimer before using these data.